sensor_id;sensor_type;location;lat;lon;timestamp;pressure;altitude;pressure_sealevel;temperature;humidity
71907;BME280;59781;52.090;5.030;2024-02-21T00:00:56;102172.34;;;9.09;100.00
71907;BME280;59781;52.090;5.030;2024-02-21T00:03:21;102162.91;;;9.15;100.00
71907;BME280;59781;52.090;5.030;2024-02-21T00:05:47;102171.50;;;9.30;100.00
71907;BME280;59781;52.090;5.030;2024-02-21T00:08:13;102164.22;;;9.20;100.00
71907;BME280;59781;52.090;5.030;2024-02-21T00:10:38;102152.16;;;9.15;100.00
71907;BME280;59781;52.090;5.030;2024-02-21T00:13:04;102157.47;;;9.05;100.00
71907;BME280;59781;52.090;5.030;2024-02-21T00:15:30;102154.03;;;9.24;100.00
71907;BME280;59781;52.090;5.030;2024-02-21T00:17:55;102158.25;;;9.17;100.00
71907;BME280;59781;52.090;5.030;2024-02-21T00:20:21;102156.72;;;9.03;100.00
71907;BME280;59781;52.090;5.030;2024-02-21T00:22:47;102159.28;;;9.05;100.00
71907;BME280;59781;52.090;5.030;2024-02-21T00:25:12;102148.84;;;9.11;100.00
71907;BME280;59781;52.090;5.030;2024-02-21T00:27:38;102150.63;;;9.01;100.00
71907;BME280;59781;52.090;5.030;2024-02-21T00:30:07;102142.50;;;9.12;100.00
71907;BME280;59781;52.090;5.030;2024-02-21T00:32:33;102136.59;;;8.98;100.00
71907;BME280;59781;52.090;5.030;2024-02-21T00:35:02;102141.78;;;9.10;100.00
71907;BME280;59781;52.090;5.030;2024-02-21T00:37:27;102145.44;;;8.88;100.00
71907;BME280;59781;52.090;5.030;2024-02-21T00:39:56;102142.97;;;8.97;100.00
71907;BME280;59781;52.090;5.030;2024-02-21T00:42:22;102142.41;;;9.03;100.00
71907;BME280;59781;52.090;5.030;2024-02-21T00:44:48;102157.53;;;9.15;100.00
71907;BME280;59781;52.090;5.030;2024-02-21T00:47:13;102159.75;;;9.10;100.00
71907;BME280;59781;52.090;5.030;2024-02-21T00:49:39;102161.38;;;9.22;100.00
71907;BME280;59781;52.090;5.030;2024-02-21T00:52:04;102157.59;;;9.25;100.00
71907;BME280;59781;52.090;5.030;2024-02-21T00:54:30;102160.50;;;9.01;100.00
71907;BME280;59781;52.090;5.030;2024-02-21T00:56:56;102153.13;;;9.14;100.00
71907;BME280;59781;52.090;5.030;2024-02-21T00:59:21;102142.13;;;9.17;100.00
71907;BME280;59781;52.090;5.030;2024-02-21T01:01:47;102162.63;;;8.97;100.00
71907;BME280;59781;52.090;5.030;2024-02-21T01:04:13;102161.59;;;9.30;100.00
71907;BME280;59781;52.090;5.030;2024-02-21T01:06:39;102152.59;;;9.20;100.00
71907;BME280;59781;52.090;5.030;2024-02-21T01:09:08;102151.75;;;9.19;100.00
71907;BME280;59781;52.090;5.030;2024-02-21T01:11:33;102147.22;;;9.20;100.00
71907;BME280;59781;52.090;5.030;2024-02-21T01:13:59;102143.91;;;9.28;100.00
71907;BME280;59781;52.090;5.030;2024-02-21T01:16:26;102142.38;;;9.14;100.00
71907;BME280;59781;52.090;5.030;2024-02-21T01:18:51;102144.88;;;9.06;100.00
71907;BME280;59781;52.090;5.030;2024-02-21T01:21:17;102142.25;;;9.15;100.00
71907;BME280;59781;52.090;5.030;2024-02-21T01:23:43;102134.63;;;9.00;100.00
71907;BME280;59781;52.090;5.030;2024-02-21T01:26:08;102123.16;;;9.39;100.00
71907;BME280;59781;52.090;5.030;2024-02-21T01:28:38;102118.00;;;9.47;100.00
71907;BME280;59781;52.090;5.030;2024-02-21T01:31:04;102109.94;;;9.27;100.00
71907;BME280;59781;52.090;5.030;2024-02-21T01:33:30;102101.53;;;9.41;100.00
71907;BME280;59781;52.090;5.030;2024-02-21T01:36:03;102112.56;;;9.38;100.00
71907;BME280;59781;52.090;5.030;2024-02-21T01:38:32;102107.25;;;9.27;100.00
71907;BME280;59781;52.090;5.030;2024-02-21T01:40:58;102102.31;;;9.32;100.00
71907;BME280;59781;52.090;5.030;2024-02-21T01:43:24;102089.53;;;9.24;100.00
71907;BME280;59781;52.090;5.030;2024-02-21T01:45:52;102098.06;;;9.29;100.00
71907;BME280;59781;52.090;5.030;2024-02-21T01:48:22;102100.16;;;9.26;100.00
71907;BME280;59781;52.090;5.030;2024-02-21T01:50:54;102088.06;;;9.41;100.00
71907;BME280;59781;52.090;5.030;2024-02-21T01:53:24;102078.84;;;9.34;100.00
71907;BME280;59781;52.090;5.030;2024-02-21T01:55:53;102083.00;;;9.17;100.00
71907;BME280;59781;52.090;5.030;2024-02-21T01:58:19;102086.09;;;9.43;100.00
71907;BME280;59781;52.090;5.030;2024-02-21T02:00:46;102081.72;;;9.21;100.00
71907;BME280;59781;52.090;5.030;2024-02-21T02:03:14;102079.56;;;9.36;100.00
71907;BME280;59781;52.090;5.030;2024-02-21T02:05:47;102077.28;;;9.62;100.00
71907;BME280;59781;52.090;5.030;2024-02-21T02:08:18;102070.25;;;9.40;100.00
71907;BME280;59781;52.090;5.030;2024-02-21T02:10:45;102059.88;;;9.56;100.00
71907;BME280;59781;52.090;5.030;2024-02-21T02:13:11;102052.88;;;9.44;100.00
71907;BME280;59781;52.090;5.030;2024-02-21T02:15:47;102060.16;;;9.32;100.00
71907;BME280;59781;52.090;5.030;2024-02-21T02:18:15;102061.56;;;9.06;100.00
71907;BME280;59781;52.090;5.030;2024-02-21T02:20:41;102054.34;;;9.27;100.00
71907;BME280;59781;52.090;5.030;2024-02-21T02:25:39;102067.09;;;9.14;100.00
71907;BME280;59781;52.090;5.030;2024-02-21T02:28:06;102061.59;;;9.36;100.00
71907;BME280;59781;52.090;5.030;2024-02-21T02:30:34;102054.03;;;9.51;100.00
71907;BME280;59781;52.090;5.030;2024-02-21T02:33:05;102055.13;;;9.18;100.00
71907;BME280;59781;52.090;5.030;2024-02-21T02:35:31;102049.81;;;9.28;100.00
71907;BME280;59781;52.090;5.030;2024-02-21T02:37:58;102059.66;;;9.17;100.00
71907;BME280;59781;52.090;5.030;2024-02-21T02:40:24;102058.03;;;9.05;100.00
71907;BME280;59781;52.090;5.030;2024-02-21T02:42:50;102056.13;;;8.96;100.00
71907;BME280;59781;52.090;5.030;2024-02-21T02:45:17;102049.19;;;9.14;100.00
71907;BME280;59781;52.090;5.030;2024-02-21T02:47:47;102038.38;;;9.05;100.00
71907;BME280;59781;52.090;5.030;2024-02-21T02:50:13;102037.97;;;9.09;100.00
71907;BME280;59781;52.090;5.030;2024-02-21T02:52:40;102040.06;;;9.06;100.00
71907;BME280;59781;52.090;5.030;2024-02-21T02:55:06;102029.53;;;9.24;100.00
71907;BME280;59781;52.090;5.030;2024-02-21T02:57:32;102022.31;;;9.24;100.00
71907;BME280;59781;52.090;5.030;2024-02-21T02:59:58;102032.28;;;9.33;100.00
71907;BME280;59781;52.090;5.030;2024-02-21T03:02:24;102033.28;;;9.11;100.00
71907;BME280;59781;52.090;5.030;2024-02-21T03:04:50;102028.81;;;9.22;100.00
71907;BME280;59781;52.090;5.030;2024-02-21T03:07:16;102017.78;;;9.15;100.00
71907;BME280;59781;52.090;5.030;2024-02-21T03:09:42;102010.25;;;9.39;100.00
71907;BME280;59781;52.090;5.030;2024-02-21T03:12:09;102006.31;;;9.53;100.00
71907;BME280;59781;52.090;5.030;2024-02-21T03:14:35;102000.56;;;8.97;100.00
71907;BME280;59781;52.090;5.030;2024-02-21T03:17:01;101998.88;;;9.26;100.00
71907;BME280;59781;52.090;5.030;2024-02-21T03:19:28;101996.13;;;9.16;100.00
71907;BME280;59781;52.090;5.030;2024-02-21T03:21:54;101984.69;;;9.24;100.00
71907;BME280;59781;52.090;5.030;2024-02-21T03:24:21;101988.16;;;9.36;100.00
71907;BME280;59781;52.090;5.030;2024-02-21T03:26:47;101984.22;;;9.40;100.00
71907;BME280;59781;52.090;5.030;2024-02-21T03:29:15;101978.09;;;9.28;100.00
71907;BME280;59781;52.090;5.030;2024-02-21T03:31:42;101975.91;;;9.22;100.00
71907;BME280;59781;52.090;5.030;2024-02-21T03:34:10;101961.75;;;9.51;100.00
71907;BME280;59781;52.090;5.030;2024-02-21T03:36:36;101962.22;;;9.25;100.00
71907;BME280;59781;52.090;5.030;2024-02-21T03:39:02;101954.28;;;9.24;100.00
71907;BME280;59781;52.090;5.030;2024-02-21T03:41:28;101968.69;;;9.23;100.00
71907;BME280;59781;52.090;5.030;2024-02-21T03:43:54;101965.44;;;9.19;100.00
71907;BME280;59781;52.090;5.030;2024-02-21T03:46:20;101965.75;;;8.95;100.00
71907;BME280;59781;52.090;5.030;2024-02-21T03:48:45;101965.72;;;9.16;100.00
71907;BME280;59781;52.090;5.030;2024-02-21T03:51:11;101966.53;;;9.07;100.00
71907;BME280;59781;52.090;5.030;2024-02-21T03:53:37;101971.00;;;8.97;100.00
71907;BME280;59781;52.090;5.030;2024-02-21T03:56:03;101962.56;;;9.11;100.00
71907;BME280;59781;52.090;5.030;2024-02-21T03:58:30;101962.34;;;9.24;100.00
71907;BME280;59781;52.090;5.030;2024-02-21T04:00:56;101960.63;;;9.23;100.00
71907;BME280;59781;52.090;5.030;2024-02-21T04:03:22;101963.41;;;9.11;100.00
71907;BME280;59781;52.090;5.030;2024-02-21T04:05:48;101964.72;;;8.86;100.00
71907;BME280;59781;52.090;5.030;2024-02-21T04:08:13;101962.13;;;9.06;100.00
71907;BME280;59781;52.090;5.030;2024-02-21T04:10:39;101946.88;;;9.06;100.00
71907;BME280;59781;52.090;5.030;2024-02-21T04:13:06;101939.34;;;9.00;100.00
71907;BME280;59781;52.090;5.030;2024-02-21T04:15:32;101932.03;;;9.12;100.00
71907;BME280;59781;52.090;5.030;2024-02-21T04:17:58;101936.47;;;8.92;100.00
71907;BME280;59781;52.090;5.030;2024-02-21T04:20:24;101941.06;;;9.11;100.00
71907;BME280;59781;52.090;5.030;2024-02-21T04:22:49;101946.78;;;9.17;100.00
71907;BME280;59781;52.090;5.030;2024-02-21T04:25:15;101945.78;;;8.88;100.00
71907;BME280;59781;52.090;5.030;2024-02-21T04:27:41;101945.63;;;8.89;100.00
71907;BME280;59781;52.090;5.030;2024-02-21T04:30:07;101946.97;;;8.95;100.00
71907;BME280;59781;52.090;5.030;2024-02-21T04:32:35;101953.81;;;9.09;100.00
71907;BME280;59781;52.090;5.030;2024-02-21T04:35:01;101936.72;;;9.19;100.00
71907;BME280;59781;52.090;5.030;2024-02-21T04:37:27;101929.97;;;9.25;100.00
71907;BME280;59781;52.090;5.030;2024-02-21T04:39:53;101925.56;;;9.24;100.00
71907;BME280;59781;52.090;5.030;2024-02-21T04:42:18;101921.84;;;9.06;100.00
71907;BME280;59781;52.090;5.030;2024-02-21T04:44:44;101924.25;;;9.09;100.00
71907;BME280;59781;52.090;5.030;2024-02-21T04:47:10;101919.34;;;8.93;100.00
71907;BME280;59781;52.090;5.030;2024-02-21T04:49:35;101913.31;;;9.01;100.00
71907;BME280;59781;52.090;5.030;2024-02-21T04:52:01;101906.28;;;9.09;100.00
71907;BME280;59781;52.090;5.030;2024-02-21T04:54:27;101903.38;;;8.91;100.00
71907;BME280;59781;52.090;5.030;2024-02-21T04:56:52;101908.94;;;9.00;100.00
71907;BME280;59781;52.090;5.030;2024-02-21T04:59:18;101907.84;;;8.81;100.00
71907;BME280;59781;52.090;5.030;2024-02-21T05:01:44;101902.69;;;8.69;100.00
71907;BME280;59781;52.090;5.030;2024-02-21T05:04:10;101913.22;;;8.81;100.00
71907;BME280;59781;52.090;5.030;2024-02-21T05:06:39;101910.75;;;8.99;100.00
71907;BME280;59781;52.090;5.030;2024-02-21T05:09:06;101896.66;;;9.07;100.00
71907;BME280;59781;52.090;5.030;2024-02-21T05:11:32;101894.84;;;9.17;100.00
71907;BME280;59781;52.090;5.030;2024-02-21T05:13:58;101889.78;;;8.93;100.00
71907;BME280;59781;52.090;5.030;2024-02-21T05:16:23;101895.91;;;8.95;100.00
71907;BME280;59781;52.090;5.030;2024-02-21T05:18:49;101891.44;;;8.84;100.00
71907;BME280;59781;52.090;5.030;2024-02-21T05:21:15;101894.09;;;8.75;100.00
71907;BME280;59781;52.090;5.030;2024-02-21T05:23:40;101890.31;;;8.77;100.00
71907;BME280;59781;52.090;5.030;2024-02-21T05:26:09;101877.91;;;8.86;100.00
71907;BME280;59781;52.090;5.030;2024-02-21T05:28:34;101862.19;;;8.81;100.00
71907;BME280;59781;52.090;5.030;2024-02-21T05:31:00;101872.19;;;9.10;100.00
71907;BME280;59781;52.090;5.030;2024-02-21T05:33:26;101860.63;;;8.79;100.00
71907;BME280;59781;52.090;5.030;2024-02-21T05:35:52;101857.56;;;8.93;100.00
71907;BME280;59781;52.090;5.030;2024-02-21T05:38:18;101845.75;;;8.75;100.00
71907;BME280;59781;52.090;5.030;2024-02-21T05:40:46;101845.97;;;8.93;100.00
71907;BME280;59781;52.090;5.030;2024-02-21T05:43:13;101839.59;;;8.94;100.00
71907;BME280;59781;52.090;5.030;2024-02-21T05:45:39;101830.31;;;8.98;100.00
71907;BME280;59781;52.090;5.030;2024-02-21T05:48:04;101831.69;;;8.92;100.00
71907;BME280;59781;52.090;5.030;2024-02-21T05:50:30;101829.59;;;8.96;100.00
71907;BME280;59781;52.090;5.030;2024-02-21T05:52:57;101831.84;;;9.00;100.00
71907;BME280;59781;52.090;5.030;2024-02-21T05:55:23;101820.19;;;8.80;100.00
71907;BME280;59781;52.090;5.030;2024-02-21T05:57:49;101819.25;;;8.91;100.00
71907;BME280;59781;52.090;5.030;2024-02-21T06:00:15;101813.16;;;8.89;100.00
71907;BME280;59781;52.090;5.030;2024-02-21T06:02:41;101812.63;;;8.95;100.00
71907;BME280;59781;52.090;5.030;2024-02-21T06:05:08;101820.47;;;8.77;100.00
71907;BME280;59781;52.090;5.030;2024-02-21T06:07:34;101810.38;;;9.00;100.00
71907;BME280;59781;52.090;5.030;2024-02-21T06:10:01;101812.91;;;9.02;100.00
71907;BME280;59781;52.090;5.030;2024-02-21T06:12:28;101803.19;;;9.10;100.00
71907;BME280;59781;52.090;5.030;2024-02-21T06:14:53;101803.59;;;9.06;100.00
71907;BME280;59781;52.090;5.030;2024-02-21T06:17:19;101806.25;;;8.96;100.00
71907;BME280;59781;52.090;5.030;2024-02-21T06:19:45;101809.72;;;8.77;100.00
71907;BME280;59781;52.090;5.030;2024-02-21T06:22:11;101814.34;;;8.66;100.00
71907;BME280;59781;52.090;5.030;2024-02-21T06:24:38;101821.31;;;8.78;100.00
71907;BME280;59781;52.090;5.030;2024-02-21T06:27:08;101822.75;;;8.82;100.00
71907;BME280;59781;52.090;5.030;2024-02-21T06:29:34;101812.97;;;8.81;100.00
71907;BME280;59781;52.090;5.030;2024-02-21T06:32:01;101830.13;;;8.89;100.00
71907;BME280;59781;52.090;5.030;2024-02-21T06:34:27;101826.50;;;8.70;100.00
71907;BME280;59781;52.090;5.030;2024-02-21T06:36:53;101820.44;;;8.68;100.00
71907;BME280;59781;52.090;5.030;2024-02-21T06:39:19;101817.78;;;8.77;100.00
71907;BME280;59781;52.090;5.030;2024-02-21T06:41:44;101817.78;;;8.77;100.00
71907;BME280;59781;52.090;5.030;2024-02-21T06:44:10;101814.22;;;8.67;100.00
71907;BME280;59781;52.090;5.030;2024-02-21T06:46:36;101821.66;;;8.63;100.00
71907;BME280;59781;52.090;5.030;2024-02-21T06:49:02;101819.59;;;8.67;100.00
71907;BME280;59781;52.090;5.030;2024-02-21T06:51:31;101801.00;;;8.54;100.00
71907;BME280;59781;52.090;5.030;2024-02-21T06:53:57;101802.72;;;8.65;100.00
71907;BME280;59781;52.090;5.030;2024-02-21T06:56:26;101800.25;;;8.83;100.00
71907;BME280;59781;52.090;5.030;2024-02-21T06:58:55;101785.56;;;8.77;100.00
71907;BME280;59781;52.090;5.030;2024-02-21T07:01:21;101787.78;;;8.72;100.00
71907;BME280;59781;52.090;5.030;2024-02-21T07:03:47;101779.97;;;8.59;100.00
71907;BME280;59781;52.090;5.030;2024-02-21T07:06:13;101784.53;;;8.69;100.00
71907;BME280;59781;52.090;5.030;2024-02-21T07:08:38;101784.81;;;8.66;100.00
71907;BME280;59781;52.090;5.030;2024-02-21T07:11:05;101784.22;;;8.62;100.00
71907;BME280;59781;52.090;5.030;2024-02-21T07:13:31;101777.91;;;8.73;100.00
71907;BME280;59781;52.090;5.030;2024-02-21T07:15:57;101781.03;;;8.78;100.00
71907;BME280;59781;52.090;5.030;2024-02-21T07:18:23;101780.41;;;8.65;100.00
71907;BME280;59781;52.090;5.030;2024-02-21T07:20:51;101779.88;;;8.71;100.00
71907;BME280;59781;52.090;5.030;2024-02-21T07:23:18;101780.31;;;8.76;100.00
71907;BME280;59781;52.090;5.030;2024-02-21T07:25:44;101773.38;;;8.73;100.00
71907;BME280;59781;52.090;5.030;2024-02-21T07:28:09;101751.91;;;8.83;100.00
71907;BME280;59781;52.090;5.030;2024-02-21T07:30:35;101755.69;;;8.71;100.00
71907;BME280;59781;52.090;5.030;2024-02-21T07:33:01;101754.00;;;8.70;100.00
71907;BME280;59781;52.090;5.030;2024-02-21T07:35:27;101733.66;;;8.67;100.00
71907;BME280;59781;52.090;5.030;2024-02-21T07:37:53;101738.47;;;8.83;100.00
71907;BME280;59781;52.090;5.030;2024-02-21T07:40:18;101725.31;;;8.70;100.00
71907;BME280;59781;52.090;5.030;2024-02-21T07:42:44;101721.13;;;8.87;100.00
71907;BME280;59781;52.090;5.030;2024-02-21T07:45:10;101718.38;;;8.68;100.00
71907;BME280;59781;52.090;5.030;2024-02-21T07:47:37;101717.13;;;8.72;100.00
71907;BME280;59781;52.090;5.030;2024-02-21T07:50:05;101711.31;;;8.67;100.00
71907;BME280;59781;52.090;5.030;2024-02-21T07:52:32;101713.56;;;8.61;100.00
71907;BME280;59781;52.090;5.030;2024-02-21T07:54:58;101712.16;;;8.67;100.00
71907;BME280;59781;52.090;5.030;2024-02-21T07:57:23;101708.34;;;8.70;100.00
71907;BME280;59781;52.090;5.030;2024-02-21T07:59:49;101706.25;;;8.83;100.00
71907;BME280;59781;52.090;5.030;2024-02-21T08:02:15;101715.59;;;8.88;100.00
71907;BME280;59781;52.090;5.030;2024-02-21T08:04:42;101702.72;;;8.82;100.00
71907;BME280;59781;52.090;5.030;2024-02-21T08:07:08;101691.09;;;8.62;100.00
71907;BME280;59781;52.090;5.030;2024-02-21T08:09:34;101701.13;;;8.60;100.00
71907;BME280;59781;52.090;5.030;2024-02-21T08:12:02;101704.97;;;8.68;100.00
71907;BME280;59781;52.090;5.030;2024-02-21T08:14:27;101697.91;;;8.67;100.00
71907;BME280;59781;52.090;5.030;2024-02-21T08:16:53;101697.31;;;8.73;100.00
71907;BME280;59781;52.090;5.030;2024-02-21T08:19:20;101702.50;;;8.55;100.00
71907;BME280;59781;52.090;5.030;2024-02-21T08:21:48;101695.47;;;8.63;100.00
71907;BME280;59781;52.090;5.030;2024-02-21T08:24:14;101689.00;;;8.66;100.00
71907;BME280;59781;52.090;5.030;2024-02-21T08:26:44;101679.53;;;8.81;100.00
71907;BME280;59781;52.090;5.030;2024-02-21T08:29:11;101678.09;;;8.58;100.00
71907;BME280;59781;52.090;5.030;2024-02-21T08:31:37;101672.47;;;8.80;100.00
71907;BME280;59781;52.090;5.030;2024-02-21T08:34:03;101668.47;;;8.65;100.00
71907;BME280;59781;52.090;5.030;2024-02-21T08:36:30;101664.25;;;8.72;100.00
71907;BME280;59781;52.090;5.030;2024-02-21T08:38:56;101673.47;;;8.79;100.00
71907;BME280;59781;52.090;5.030;2024-02-21T08:41:25;101671.16;;;8.75;100.00
71907;BME280;59781;52.090;5.030;2024-02-21T08:43:51;101645.91;;;8.87;100.00
71907;BME280;59781;52.090;5.030;2024-02-21T08:46:22;101646.75;;;8.97;100.00
71907;BME280;59781;52.090;5.030;2024-02-21T08:48:50;101647.00;;;8.84;100.00
71907;BME280;59781;52.090;5.030;2024-02-21T08:51:17;101641.09;;;8.90;100.00
71907;BME280;59781;52.090;5.030;2024-02-21T08:53:48;101630.50;;;8.89;100.00
71907;BME280;59781;52.090;5.030;2024-02-21T08:56:15;101637.41;;;8.82;100.00
71907;BME280;59781;52.090;5.030;2024-02-21T08:58:42;101640.94;;;9.02;100.00
71907;BME280;59781;52.090;5.030;2024-02-21T09:01:08;101630.34;;;9.19;100.00
71907;BME280;59781;52.090;5.030;2024-02-21T09:03:37;101627.66;;;8.90;100.00
71907;BME280;59781;52.090;5.030;2024-02-21T09:06:07;101625.41;;;8.86;100.00
71907;BME280;59781;52.090;5.030;2024-02-21T09:08:34;101623.00;;;9.02;100.00
71907;BME280;59781;52.090;5.030;2024-02-21T09:11:01;101622.13;;;8.92;100.00
71907;BME280;59781;52.090;5.030;2024-02-21T09:13:27;101619.59;;;8.90;100.00
71907;BME280;59781;52.090;5.030;2024-02-21T09:15:53;101624.28;;;8.79;100.00
71907;BME280;59781;52.090;5.030;2024-02-21T09:18:18;101617.34;;;8.67;100.00
71907;BME280;59781;52.090;5.030;2024-02-21T09:20:45;101606.47;;;8.78;100.00
71907;BME280;59781;52.090;5.030;2024-02-21T09:23:11;101610.84;;;8.88;100.00
71907;BME280;59781;52.090;5.030;2024-02-21T09:25:37;101589.50;;;8.97;100.00
71907;BME280;59781;52.090;5.030;2024-02-21T09:28:03;101590.16;;;9.28;100.00
71907;BME280;59781;52.090;5.030;2024-02-21T09:30:32;101579.84;;;9.13;100.00
71907;BME280;59781;52.090;5.030;2024-02-21T09:32:58;101555.13;;;9.00;100.00
71907;BME280;59781;52.090;5.030;2024-02-21T09:35:25;101561.63;;;8.98;100.00
71907;BME280;59781;52.090;5.030;2024-02-21T09:37:53;101562.06;;;8.83;100.00
71907;BME280;59781;52.090;5.030;2024-02-21T09:40:19;101554.28;;;9.00;100.00
71907;BME280;59781;52.090;5.030;2024-02-21T09:42:47;101547.91;;;9.10;100.00
71907;BME280;59781;52.090;5.030;2024-02-21T09:45:22;101535.97;;;9.23;100.00
71907;BME280;59781;52.090;5.030;2024-02-21T09:50:57;101511.59;;;8.97;100.00
71907;BME280;59781;52.090;5.030;2024-02-21T09:53:24;101500.06;;;9.14;100.00
71907;BME280;59781;52.090;5.030;2024-02-21T09:55:50;101496.78;;;9.30;100.00
71907;BME280;59781;52.090;5.030;2024-02-21T09:58:18;101487.75;;;9.21;100.00
71907;BME280;59781;52.090;5.030;2024-02-21T10:00:44;101474.00;;;9.24;100.00
71907;BME280;59781;52.090;5.030;2024-02-21T10:03:10;101482.16;;;9.05;100.00
71907;BME280;59781;52.090;5.030;2024-02-21T10:05:36;101472.09;;;9.16;100.00
71907;BME280;59781;52.090;5.030;2024-02-21T10:08:04;101467.06;;;9.31;100.00
71907;BME280;59781;52.090;5.030;2024-02-21T10:10:30;101461.25;;;9.63;100.00
71907;BME280;59781;52.090;5.030;2024-02-21T10:13:06;101449.09;;;9.32;100.00
71907;BME280;59781;52.090;5.030;2024-02-21T10:15:32;101449.00;;;9.51;100.00
71907;BME280;59781;52.090;5.030;2024-02-21T10:17:59;101451.09;;;9.57;100.00
71907;BME280;59781;52.090;5.030;2024-02-21T10:20:27;101446.03;;;9.54;100.00
71907;BME280;59781;52.090;5.030;2024-02-21T10:23:03;101449.25;;;9.58;100.00
71907;BME280;59781;52.090;5.030;2024-02-21T10:25:36;101432.38;;;9.65;100.00
71907;BME280;59781;52.090;5.030;2024-02-21T10:28:08;101415.03;;;9.77;100.00
71907;BME280;59781;52.090;5.030;2024-02-21T10:30:37;101402.75;;;9.47;100.00
71907;BME280;59781;52.090;5.030;2024-02-21T10:33:02;101405.63;;;9.82;100.00
71907;BME280;59781;52.090;5.030;2024-02-21T10:35:32;101388.66;;;9.81;100.00
71907;BME280;59781;52.090;5.030;2024-02-21T10:37:59;101361.75;;;9.99;100.00
71907;BME280;59781;52.090;5.030;2024-02-21T10:40:28;101371.06;;;9.69;100.00
71907;BME280;59781;52.090;5.030;2024-02-21T10:42:59;101351.31;;;9.96;100.00
71907;BME280;59781;52.090;5.030;2024-02-21T10:45:31;101338.94;;;9.67;100.00
71907;BME280;59781;52.090;5.030;2024-02-21T10:48:20;101328.47;;;9.46;100.00
71907;BME280;59781;52.090;5.030;2024-02-21T10:51:03;101332.00;;;9.47;100.00
71907;BME280;59781;52.090;5.030;2024-02-21T10:56:31;101396.38;;;9.48;100.00
71907;BME280;59781;52.090;5.030;2024-02-21T10:59:03;101393.03;;;10.00;100.00
71907;BME280;59781;52.090;5.030;2024-02-21T11:01:30;101395.25;;;9.69;100.00
71907;BME280;59781;52.090;5.030;2024-02-21T11:04:05;101398.28;;;9.84;100.00
71907;BME280;59781;52.090;5.030;2024-02-21T11:06:35;101387.72;;;9.72;100.00
71907;BME280;59781;52.090;5.030;2024-02-21T11:09:03;101383.13;;;9.65;100.00
71907;BME280;59781;52.090;5.030;2024-02-21T11:11:33;101385.81;;;9.65;100.00
71907;BME280;59781;52.090;5.030;2024-02-21T11:14:19;101373.19;;;9.47;100.00
71907;BME280;59781;52.090;5.030;2024-02-21T11:16:46;101372.44;;;9.55;100.00
71907;BME280;59781;52.090;5.030;2024-02-21T11:19:25;101382.34;;;9.55;100.00
71907;BME280;59781;52.090;5.030;2024-02-21T11:21:52;101367.13;;;9.63;100.00
71907;BME280;59781;52.090;5.030;2024-02-21T11:24:28;101365.91;;;9.58;100.00
71907;BME280;59781;52.090;5.030;2024-02-21T11:30:04;101340.44;;;9.52;100.00
71907;BME280;59781;52.090;5.030;2024-02-21T11:32:31;101324.00;;;9.73;100.00
71907;BME280;59781;52.090;5.030;2024-02-21T11:34:58;101311.34;;;9.47;100.00
71907;BME280;59781;52.090;5.030;2024-02-21T11:37:27;101316.41;;;9.68;100.00
71907;BME280;59781;52.090;5.030;2024-02-21T11:39:55;101271.06;;;9.91;100.00
71907;BME280;59781;52.090;5.030;2024-02-21T11:42:21;101264.13;;;10.06;100.00
71907;BME280;59781;52.090;5.030;2024-02-21T11:44:48;101257.16;;;10.22;100.00
71907;BME280;59781;52.090;5.030;2024-02-21T11:47:14;101248.72;;;10.17;100.00
71907;BME280;59781;52.090;5.030;2024-02-21T11:49:46;101227.63;;;10.12;100.00
71907;BME280;59781;52.090;5.030;2024-02-21T11:52:14;101235.56;;;10.14;100.00
71907;BME280;59781;52.090;5.030;2024-02-21T11:54:44;101213.03;;;10.41;100.00
71907;BME280;59781;52.090;5.030;2024-02-21T11:57:10;101214.41;;;10.19;100.00
71907;BME280;59781;52.090;5.030;2024-02-21T11:59:36;101217.09;;;10.19;100.00
71907;BME280;59781;52.090;5.030;2024-02-21T12:02:03;101200.53;;;10.31;100.00
71907;BME280;59781;52.090;5.030;2024-02-21T12:04:29;101204.22;;;10.30;100.00
71907;BME280;59781;52.090;5.030;2024-02-21T12:06:58;101190.13;;;10.11;100.00
71907;BME280;59781;52.090;5.030;2024-02-21T12:09:25;101178.00;;;10.06;100.00
71907;BME280;59781;52.090;5.030;2024-02-21T12:11:59;101183.09;;;10.18;100.00
71907;BME280;59781;52.090;5.030;2024-02-21T12:14:27;101175.28;;;10.24;100.00
71907;BME280;59781;52.090;5.030;2024-02-21T12:16:54;101176.03;;;10.43;100.00
71907;BME280;59781;52.090;5.030;2024-02-21T12:19:20;101165.56;;;10.05;100.00
71907;BME280;59781;52.090;5.030;2024-02-21T12:21:48;101157.09;;;10.26;100.00
71907;BME280;59781;52.090;5.030;2024-02-21T12:24:23;101160.84;;;10.42;100.00
71907;BME280;59781;52.090;5.030;2024-02-21T12:26:54;101144.44;;;10.61;100.00
71907;BME280;59781;52.090;5.030;2024-02-21T12:29:22;101140.16;;;10.34;100.00
71907;BME280;59781;52.090;5.030;2024-02-21T12:31:50;101124.00;;;10.34;100.00
71907;BME280;59781;52.090;5.030;2024-02-21T12:34:16;101107.94;;;10.75;100.00
71907;BME280;59781;52.090;5.030;2024-02-21T12:36:45;101093.09;;;10.71;100.00
71907;BME280;59781;52.090;5.030;2024-02-21T12:39:14;101070.00;;;10.52;100.00
71907;BME280;59781;52.090;5.030;2024-02-21T12:41:41;101077.56;;;10.40;100.00
71907;BME280;59781;52.090;5.030;2024-02-21T12:44:08;101076.84;;;10.30;100.00
71907;BME280;59781;52.090;5.030;2024-02-21T12:46:37;101080.66;;;10.19;100.00
71907;BME280;59781;52.090;5.030;2024-02-21T12:49:04;101064.84;;;10.16;100.00
71907;BME280;59781;52.090;5.030;2024-02-21T12:51:32;101061.44;;;10.06;100.00
71907;BME280;59781;52.090;5.030;2024-02-21T12:53:58;101048.16;;;10.13;100.00
71907;BME280;59781;52.090;5.030;2024-02-21T12:56:25;101050.72;;;10.14;100.00
71907;BME280;59781;52.090;5.030;2024-02-21T12:58:55;101031.34;;;10.11;100.00